South Reno (Wolf Run), Nevada Weather observations

Data are for observation ending at time listed.
 Day   Time    Ave.   Ave.  Ave.  Vector   Max.   Stn.    Total    Solar   Ave.  
  of    of     Air    Rel.  Wind   Wind    Wind   Baro.  Precip.   Rad.    Soil  
Year   Day     Temp.  Hum.  Speed  Dir.    Gust   Pres.                    Temp. 
2017   (PST)    F      %     mph   deg.    mph     mb.     in.     W/m2     F   
------------------------------------------------------------------------------
  15    0:00   28.3    81    3.1   198      4.7  99999.0    0.00       0    35.8
  15    0:10   28.2    81    2.7   180      6.1  99999.0    0.00       0    35.8
  15    0:20   28.1    82    2.5   160      4.7  99999.0    0.00       0    35.8
  15    0:30   28.1    82    2.0   183      3.7  99999.0    0.00       0    35.8
  15    0:40   27.9    82    2.9   198      5.0  99999.0    0.00       0    35.8
  15    0:50   27.8    82    3.1   192      6.3  99999.0    0.00       0    35.8
  15    1:00   27.8    82    3.2   190      5.6  99999.0    0.00       0    35.8
  15    1:10   27.8    82    2.5   175      4.0  99999.0    0.00       0    35.8
  15    1:20   27.7    82    2.8   188      5.1  99999.0    0.00       0    35.8
  15    1:30   27.6    82    2.4   182      4.2  99999.0    0.00       0    35.8
  15    1:40   27.5    82    3.1   188      5.2  99999.0    0.00       0    35.8
  15    1:50   27.4    82    2.6   182      4.6  99999.0    0.00       0    35.8
  15    2:00   27.4    82    3.5   169      6.3  99999.0    0.00       0    35.8
  15    2:10   27.3    82    3.1   144      6.5  99999.0    0.00       0    35.8
  15    2:20   27.3    82    2.3   187      5.6  99999.0    0.00       0    35.8
  15    2:30   27.2    82    3.0   204      7.3  99999.0    0.00       0    35.8
  15    2:40   27.0    83    3.2   192      6.0  99999.0    0.00       0    35.8
  15    2:50   27.0    83    2.4   195      5.1  99999.0    0.00       0    35.8
  15    3:00   26.9    83    3.0   185      7.5  99999.0    0.00       0    35.8
  15    3:10   26.8    83    3.3   159      5.6  99999.0    0.00       0    35.8
  15    3:20   26.6    83    2.9   156      6.7  99999.0    0.00       0    35.8
  15    3:30   26.7    83    3.2   165      6.1  99999.0    0.00       0    35.8
  15    3:40   26.6    84    2.8   169      4.8  99999.0    0.00       0    35.8
  15    3:50   26.5    83    2.6   215      7.2  99999.0    0.00       0    35.8
  15    4:00   26.5    83    1.2   205      3.4  99999.0    0.00       0    35.8
  15    4:10   26.5    83    1.6   214      4.7  99999.0    0.00       0    35.8
  15    4:20   26.4    83    2.1   218      5.5  99999.0    0.00       0    35.8
  15    4:30   26.5    83    1.4   224      3.7  99999.0    0.00       0    35.8
  15    4:40   26.4    84    2.7   222      5.2  99999.0    0.00       0    35.8
  15    4:50   26.3    84    3.3   219      5.8  99999.0    0.00       0    35.8
  15    5:00   26.3    84    2.6   217      5.1  99999.0    0.00       0    35.8
  15    5:10   26.3    83    3.4   226      6.9  99999.0    0.00       0    35.8
  15    5:20   26.2    83    2.6   213      5.0  99999.0    0.00       0    35.8
  15    5:30   26.1    84    3.4   220      5.6  99999.0    0.00       0    35.8
  15    5:40   26.1    85    2.5   207      4.3  99999.0    0.00       0    35.8
  15    5:50   26.1    84    2.0   228      3.8  99999.0    0.00       0    35.8
  15    6:00   26.1    84    1.4   194      3.0  99999.0    0.00       0    35.8
  15    6:10   25.9    84    2.5   218      5.0  99999.0    0.00       0    35.8
  15    6:20   25.9    85    1.8   206      5.8  99999.0    0.00       0    35.8
  15    6:30   25.8    85    3.6   209      6.6  99999.0    0.00       0    35.8
  15    6:40   25.7    85    3.8   225      6.6  99999.0    0.00       0    35.8
  15    6:50   25.7    84    4.9   229      7.1  99999.0    0.00       0    35.8
  15    7:00   25.6    85    4.2   223      7.6  99999.0    0.00       0    35.8
  15    7:10   25.5    86    3.6   221      7.1  99999.0    0.00       0    35.8
  15    7:20   25.4    86    3.4   160      5.3  99999.0    0.00       1    35.8
  15    7:30   25.5    86    1.0   174      2.5  99999.0    0.00       3    35.8
  15    7:40   25.5    86    1.4   170      4.8  99999.0    0.00       5    35.8
  15    7:50   25.5    86    2.3   183      5.5  99999.0    0.00       9    35.8
  15    8:00   25.5    86    3.2   142      6.5  99999.0    0.00      14    35.8
  15    8:10   25.5    86    1.8   183      4.5  99999.0    0.00      19    35.8
  15    8:20   25.4    86    1.9   212      4.2  99999.0    0.00      24    35.8
  15    8:30   25.6    86    2.1   165      6.7  99999.0    0.00      32    35.8
  15    8:40   25.4    86    2.9   210      5.8  99999.0    0.00      40    35.8
  15    8:50   25.5    86    2.3   234      6.5  99999.0    0.00      45    35.8
  15    9:00   25.7    85    0.8   231      3.2  99999.0    0.00      45    35.8
  15    9:10   25.6    85    1.7   242      3.8  99999.0    0.00      52    35.8
  15    9:20   25.6    85    3.1   250      5.3  99999.0    0.00      62    35.8
  15    9:30   25.6    85    1.4   229      3.1  99999.0    0.00      70    35.8
  15    9:40   25.7    85    1.7   214      3.8  99999.0    0.00      76    35.8
  15    9:50   25.8    85    2.3   222      4.2  99999.0    0.00      81    35.8
  15   10:00   25.8    85    2.9   244      5.6  99999.0    0.00      89    35.8
  15   10:10   25.9    84    3.1   226      6.9  99999.0    0.00      99    35.8
  15   10:20   25.9    84    2.3   222      4.5  99999.0    0.00     105    35.8
  15   10:30   26.1    84    2.2   210      4.5  99999.0    0.00     113    35.8
  15   10:40   26.1    84    3.5   239      7.2  99999.0    0.00     121    35.8
  15   10:50   25.9    84    3.5   232      6.6  99999.0    0.00     126    35.8
  15   11:00   26.3    84    1.9   243      5.0  99999.0    0.00     132    35.8
  15   11:10   26.6    83    2.3   225      5.5  99999.0    0.00     140    35.8
  15   11:20   26.6    83    2.7   208      5.4  99999.0    0.00     162    35.8
  15   11:30   26.5    83    3.2   221      6.5  99999.0    0.00     184    35.8
  15   11:40   26.4    83    4.0   202      5.9  99999.0    0.00     184    35.8
  15   11:50   26.5    83    4.2   195      7.4  99999.0    0.00     181    35.8
  15   12:00   26.5    83    3.5   175      6.9  99999.0    0.00     164    35.8
  15   12:10   26.4    83    4.3   185      6.2  99999.0    0.00     147    35.8
  15   12:20   26.4    83    3.7   189      6.1  99999.0    0.00     179    35.8
  15   12:30   26.4    83    4.2   208      8.6  99999.0    0.00     184    35.8
  15   12:40   26.4    82    3.8   186      7.0  99999.0    0.00     215    35.8
  15   12:50   26.7    82    3.5   160      6.4  99999.0    0.00     203    35.8
  15   13:00   26.9    82    3.0   143      5.8  99999.0    0.00     189    35.8
  15   13:10   27.0    82    3.3   203      6.9  99999.0    0.00     174    35.8
  15   13:20   26.9    82    3.4   237      8.4  99999.0    0.00     219    35.8
  15   13:30   28.5    79    2.7   301      5.4  99999.0    0.00     220    35.8
  15   13:40   28.6    78    2.0   319      4.4  99999.0    0.00     156    35.8
  15   13:50   28.3    78    2.4   316      6.1  99999.0    0.00     132    35.8
  15   14:00   28.5    79    1.5   344      4.3  99999.0    0.00     153    35.8
  15   14:10   28.5    78    2.3   345      3.5  99999.0    0.00     191    35.8
  15   14:20   29.0    77    1.4   354      2.9  99999.0    0.00     170    35.8
  15   14:30   29.1    76    1.1    30      2.3  99999.0    0.00     154    35.8
  15   14:40   29.1    76    1.4     9      3.7  99999.0    0.00     126    35.8

Return to South Reno, Nevada graphs page.


Western Regional Climate Center,wrcc@dri.edu